createdAt,value
2022-09-07T00:07:59.393Z,18.09
2022-09-07T00:23:01.630Z,18.49
2022-09-07T00:38:03.889Z,17.49
2022-09-07T00:53:10.974Z,17.77
2022-09-07T01:08:13.339Z,18.20
2022-09-07T01:23:36.858Z,18.33
2022-09-07T01:38:41.920Z,18.50
2022-09-07T01:53:47.986Z,18.61
2022-09-07T02:09:00.095Z,18.07
2022-09-07T02:24:08.484Z,17.73
2022-09-07T02:39:10.783Z,17.85
2022-09-07T02:54:28.085Z,17.72
2022-09-07T03:09:32.431Z,17.76
2022-09-07T03:24:34.683Z,17.59
2022-09-07T03:39:37.227Z,17.18
2022-09-07T03:54:39.924Z,17.00
2022-09-07T04:09:42.200Z,16.97
2022-09-07T04:24:44.468Z,17.20
2022-09-07T04:39:46.725Z,16.95
2022-09-07T04:54:50.620Z,16.82
2022-09-07T05:09:52.911Z,16.96
2022-09-07T05:24:55.195Z,17.35
2022-09-07T05:39:58.258Z,17.40
2022-09-07T05:55:19.316Z,19.14
2022-09-07T06:25:49.269Z,23.69
2022-09-07T06:56:15.206Z,28.22
2022-09-07T07:11:17.415Z,28.41
2022-09-07T07:26:21.100Z,27.20
2022-09-07T07:56:48.171Z,24.77
2022-09-07T08:11:50.357Z,27.93
2022-09-07T08:26:52.720Z,28.90
2022-09-07T08:42:23.212Z,26.44
2022-09-07T08:57:29.202Z,29.14
2022-09-07T09:12:55.628Z,29.72
2022-09-07T09:27:58.093Z,28.37
2022-09-07T09:43:21.552Z,27.30
2022-09-07T10:13:55.698Z,29.60
2022-09-07T10:29:23.728Z,26.17
2022-09-07T10:44:44.665Z,25.94
2022-09-07T11:15:16.921Z,29.74
2022-09-07T11:30:23.881Z,28.34
2022-09-07T11:45:33.800Z,29.86
2022-09-07T12:00:48.658Z,27.42
2022-09-07T12:15:53.834Z,28.88
2022-09-07T12:31:05.955Z,27.50
2022-09-07T12:46:19.566Z,29.83
2022-09-07T13:01:44.232Z,28.29
2022-09-07T13:32:21.051Z,26.46
2022-09-07T13:47:41.187Z,26.63
2022-09-07T14:02:43.430Z,26.80
2022-09-07T14:17:45.827Z,26.42
2022-09-07T14:32:48.952Z,26.79
2022-09-07T14:47:55.038Z,26.37
2022-09-07T15:02:57.191Z,26.15
2022-09-07T15:18:06.046Z,25.68
2022-09-07T15:33:11.479Z,25.79
2022-09-07T15:48:18.036Z,25.82
2022-09-07T16:03:20.287Z,25.29
2022-09-07T16:18:23.662Z,25.21
2022-09-07T16:33:34.399Z,25.21
2022-09-07T16:48:38.963Z,24.17
2022-09-07T17:03:41.229Z,23.73
2022-09-07T17:34:05.713Z,23.13
2022-09-07T17:49:09.996Z,22.55
2022-09-07T18:04:13.159Z,22.02
2022-09-07T18:19:15.602Z,21.69
2022-09-07T18:34:17.758Z,21.71
2022-09-07T18:49:20.389Z,21.37
2022-09-07T19:04:22.950Z,21.40
2022-09-07T19:19:26.466Z,20.42
2022-09-07T19:34:28.629Z,20.11
2022-09-07T19:49:30.788Z,20.58
2022-09-07T20:04:32.983Z,20.36
2022-09-07T20:19:35.174Z,20.18
2022-09-07T20:34:37.593Z,20.43
2022-09-07T20:49:39.791Z,20.27
2022-09-07T21:04:42.608Z,19.91
2022-09-07T21:19:44.793Z,19.78
2022-09-07T21:34:46.990Z,19.72
2022-09-07T21:49:49.176Z,19.84
2022-09-07T22:04:51.330Z,19.68
2022-09-07T22:19:53.519Z,19.47
2022-09-07T22:34:55.711Z,19.41
2022-09-07T22:50:00.234Z,19.22
2022-09-07T23:05:03.887Z,18.94
2022-09-07T23:20:06.648Z,18.53
2022-09-07T23:35:11.688Z,18.53
2022-09-07T23:50:15.938Z,18.38
